Terminal Aerodrome Forecast
Issued by NWS Charleston, WV

Home | Current Version | Previous Version | Text Only | Print | Product List | Glossary On
Versions: 1 2 3 4 5 6 7 8 9 10 11 12 13 14 15 16 17 18 19 20 21 22
000
FTUS41 KRLX 011700
TAFEKN
TAF
KEKN 011737Z 0118/0218 26009KT P6SM VCSH BKN045
     FM012300 24004KT P6SM SCT045
     FM020300 00000KT 6SM BR SCT045
     FM020500 00000KT 4SM BR SCT035
     FM021100 00000KT 1SM BR SCT001 SCT030
     FM021300 24006KT 6SM BR FEW001 BKN030
     FM021600 25010G15KT P6SM VCTS BKN035CB=

USA.gov is the U.S. government's official web portal to all federal, state and local government web resources and services.